Time;durP1;ratioP1;P1;durP2;ratioP2;P2;SDS_P1;SDS_P2;PMS_P1;PMS_P2;Temp;Humidity;BMP_temperature;BMP_pressure;BME280_temperature;BME280_humidity;BME280_pressure;Samples;Min_cycle;Max_cycle;Signal;HPM_P1;HPM_P2
2023/05/31 08:56:46;;;;;;;18.38;10.88;;;;;;;17.42;80.20;102304.66;5063059;28;20386;-76
2023/05/31 08:59:11;;;;;;;17.35;9.77;;;;;;;17.60;78.18;102295.53;5061339;28;20039;-77
2023/05/31 09:01:38;;;;;;;15.93;9.63;;;;;;;17.74;74.93;102293.38;5059763;28;20040;-75
2023/05/31 09:04:07;;;;;;;15.75;9.70;;;;;;;17.80;74.41;102293.28;5068663;28;20333;-77
2023/05/31 09:06:34;;;;;;;15.55;9.05;;;;;;;17.83;74.03;102290.06;5068466;28;20074;-78
2023/05/31 09:09:00;;;;;;;16.33;8.75;;;;;;;17.88;70.77;102292.91;5069650;28;20029;-73
2023/05/31 09:11:26;;;;;;;21.98;9.38;;;;;;;17.99;71.29;102293.19;5068528;28;20440;-75
2023/05/31 09:13:52;;;;;;;15.27;8.85;;;;;;;18.16;70.46;102298.75;5068552;28;20497;-75
2023/05/31 09:16:17;;;;;;;18.25;9.75;;;;;;;18.31;70.39;102298.25;5071700;28;20025;-77
2023/05/31 09:18:43;;;;;;;18.35;8.95;;;;;;;18.34;67.81;102287.66;5048157;28;20017;-77
2023/05/31 09:21:10;;;;;;;15.57;8.85;;;;;;;18.39;69.13;102282.25;5048380;28;20116;-76
2023/05/31 09:23:35;;;;;;;18.90;8.57;;;;;;;18.50;67.25;102282.47;5048298;28;20026;-78
2023/05/31 09:26:01;;;;;;;13.10;7.78;;;;;;;18.59;65.46;102278.28;5047763;28;20027;-74
2023/05/31 09:28:26;;;;;;;18.20;7.72;;;;;;;18.77;63.78;102285.47;5059890;28;20059;-75
2023/05/31 09:31:05;;;;;;;14.15;7.60;;;;;;;18.69;63.94;102283.09;5072082;28;20102;-76
2023/05/31 09:33:42;;;;;;;12.85;8.00;;;;;;;18.72;64.62;102275.25;5057871;28;20378;-76
2023/05/31 09:36:08;;;;;;;20.85;8.80;;;;;;;18.72;65.11;102269.75;5069223;28;20020;-72
2023/05/31 09:38:36;;;;;;;13.38;7.72;;;;;;;18.87;64.84;102276.63;5067882;28;20479;-73
2023/05/31 09:41:12;;;;;;;14.38;7.32;;;;;;;18.91;63.47;102275.88;5068919;28;20035;-75
2023/05/31 09:43:43;;;;;;;16.63;7.15;;;;;;;19.03;61.35;102264.84;5069083;28;20029;-74
2023/05/31 09:46:18;;;;;;;18.10;7.40;;;;;;;19.05;61.43;102257.22;5078620;28;20028;-77
2023/05/31 09:48:45;;;;;;;13.95;7.40;;;;;;;19.25;60.91;102255.91;5066128;28;20367;-74
2023/05/31 09:51:13;;;;;;;12.00;7.07;;;;;;;19.36;59.02;102248.66;5068964;28;20020;-75
2023/05/31 09:53:44;;;;;;;12.00;7.03;;;;;;;19.47;57.53;102256.81;5068825;28;20471;-74
2023/05/31 09:56:11;;;;;;;14.35;6.47;;;;;;;19.54;57.10;102251.13;5068907;28;20043;-74
2023/05/31 09:58:36;;;;;;;14.27;6.65;;;;;;;19.47;56.90;102247.72;5067457;28;20589;-76
2023/05/31 10:01:02;;;;;;;12.50;5.75;;;;;;;19.68;59.44;102243.38;5063551;28;20043;-76
2023/05/31 10:03:28;;;;;;;9.52;6.10;;;;;;;19.79;56.67;102249.88;5065429;28;20043;-75
2023/05/31 10:05:53;;;;;;;13.88;6.53;;;;;;;19.95;55.73;102254.50;5068234;28;20116;-74
2023/05/31 10:08:20;;;;;;;13.20;5.97;;;;;;;20.06;55.13;102260.13;5053073;28;20112;-77
2023/05/31 10:10:45;;;;;;;12.02;5.75;;;;;;;20.08;55.10;102242.31;5052567;28;20119;-78
2023/05/31 10:13:13;;;;;;;15.50;6.18;;;;;;;20.13;55.31;102250.59;5055007;28;20167;-74
2023/05/31 10:15:41;;;;;;;11.55;5.20;;;;;;;20.26;54.08;102249.41;5054042;28;20029;-74
2023/05/31 10:18:11;;;;;;;12.98;5.75;;;;;;;20.27;53.91;102240.03;5055170;28;20021;-76
2023/05/31 10:21:10;;;;;;;12.00;4.88;;;;;;;20.32;54.54;102237.38;5055400;28;20025;-77
2023/05/31 10:23:43;;;;;;;11.50;5.85;;;;;;;20.44;52.66;102240.00;5049973;28;20069;-77
2023/05/31 10:26:17;;;;;;;8.75;5.00;;;;;;;20.52;52.87;102235.94;5054673;28;20047;-77
2023/05/31 10:28:58;;;;;;;14.05;5.32;;;;;;;20.62;52.50;102236.06;5052117;28;20064;-76
2023/05/31 10:31:32;;;;;;;12.95;5.38;;;;;;;20.66;53.04;102233.63;5035291;28;20033;-75
2023/05/31 10:34:10;;;;;;;11.70;5.55;;;;;;;20.71;51.85;102226.28;5054258;28;20028;-75
2023/05/31 10:36:36;;;;;;;12.75;5.22;;;;;;;20.86;51.06;102217.34;5053226;28;20431;-78
2023/05/31 10:39:24;;;;;;;13.40;5.15;;;;;;;20.94;52.05;102202.28;5052862;28;20092;-76
2023/05/31 10:41:55;;;;;;;8.57;3.88;;;;;;;21.01;49.37;102205.59;5054505;28;20029;-74
2023/05/31 10:44:31;;;;;;;11.40;3.88;;;;;;;21.15;50.30;102205.16;5054096;28;20482;-74
2023/05/31 10:47:02;;;;;;;8.52;3.80;;;;;;;21.24;49.67;102211.84;5051765;28;20541;-76
2023/05/31 10:49:32;;;;;;;11.45;4.10;;;;;;;21.28;48.16;102198.41;5052765;28;20083;-79
2023/05/31 10:52:04;;;;;;;11.50;4.03;;;;;;;21.35;47.92;102194.31;5053672;28;20070;-76
2023/05/31 10:54:32;;;;;;;12.60;4.03;;;;;;;21.38;47.37;102199.28;5052551;28;20421;-77
2023/05/31 10:56:59;;;;;;;8.75;4.18;;;;;;;21.46;47.92;102191.63;5051787;28;20029;-76
2023/05/31 10:59:26;;;;;;;8.93;3.88;;;;;;;21.58;47.53;102195.03;5039007;28;20029;-77
2023/05/31 11:01:51;;;;;;;17.77;3.78;;;;;;;21.70;45.70;102198.41;5041507;28;20440;-75
2023/05/31 11:04:22;;;;;;;10.65;4.40;;;;;;;21.72;45.90;102198.13;5054040;28;20032;-78
2023/05/31 11:06:52;;;;;;;9.57;3.63;;;;;;;21.90;46.76;102194.09;5052408;28;20029;-76
2023/05/31 11:09:17;;;;;;;15.27;4.18;;;;;;;21.95;46.87;102192.19;5053823;28;20013;-74
2023/05/31 11:11:46;;;;;;;17.50;3.70;;;;;;;21.91;45.25;102187.50;5054045;28;20021;-78
2023/05/31 11:14:25;;;;;;;15.45;4.10;;;;;;;21.90;45.80;102172.88;5052562;28;20021;-74
2023/05/31 11:16:52;;;;;;;8.68;3.78;;;;;;;21.98;45.26;102182.53;5051603;28;20360;-74
2023/05/31 11:19:20;;;;;;;8.15;3.90;;;;;;;22.12;45.62;102183.69;5050979;28;20068;-79
2023/05/31 11:21:54;;;;;;;12.20;3.80;;;;;;;22.19;46.60;102185.38;5052547;28;20068;-76
2023/05/31 11:24:50;;;;;;;18.55;3.75;;;;;;;22.24;45.58;102180.69;5052803;28;20017;-77
2023/05/31 11:27:17;;;;;;;12.18;3.67;;;;;;;22.38;43.86;102175.53;5053734;28;20048;-76
2023/05/31 11:29:48;;;;;;;10.45;3.85;;;;;;;22.45;44.32;102194.56;5052922;28;20025;-74
2023/05/31 11:32:21;;;;;;;11.38;4.10;;;;;;;22.41;44.85;102186.00;5060407;28;20032;-76
2023/05/31 11:35:03;;;;;;;11.80;3.55;;;;;;;22.50;44.90;102185.50;5071867;28;20028;-72
2023/05/31 11:37:36;;;;;;;;;;;;;;;22.52;45.68;102181.34;5074848;28;20089;-75
2023/05/31 11:40:09;;;;;;;8.18;3.40;;;;;;;22.60;43.46;102179.97;5057823;28;19909;-73
2023/05/31 11:42:39;;;;;;;7.22;2.88;;;;;;;22.72;43.19;102176.94;5052372;28;20527;-78
2023/05/31 11:45:09;;;;;;;9.68;3.30;;;;;;;22.75;42.64;102173.63;5050823;28;20032;-72
2023/05/31 11:47:52;;;;;;;7.57;3.63;;;;;;;22.79;43.03;102177.50;5054985;28;20089;-73
2023/05/31 11:50:18;;;;;;;9.82;3.70;;;;;;;22.79;42.51;102171.97;5073264;28;20024;-75
2023/05/31 11:52:44;;;;;;;10.25;3.45;;;;;;;22.92;43.65;102165.09;5073411;28;20497;-74
2023/05/31 11:55:10;;;;;;;11.55;3.67;;;;;;;23.07;42.50;102169.75;5073020;28;20048;-76
2023/05/31 11:57:46;;;;;;;9.88;3.58;;;;;;;23.14;41.85;102168.41;5057640;28;20163;-74
2023/05/31 12:00:15;;;;;;;9.88;3.45;;;;;;;23.15;41.29;102167.28;5050559;28;20061;-73
2023/05/31 12:02:42;;;;;;;9.80;3.45;;;;;;;23.21;42.10;102151.56;5049913;28;20021;-71
2023/05/31 12:05:12;;;;;;;9.93;3.83;;;;;;;23.27;41.78;102155.13;5052034;28;20048;-76
2023/05/31 12:07:37;;;;;;;7.20;3.75;;;;;;;23.36;41.80;102159.78;5051922;28;20074;-74
2023/05/31 12:10:05;;;;;;;11.18;3.60;;;;;;;23.39;41.41;102152.88;5050975;28;20131;-73
2023/05/31 12:12:30;;;;;;;15.57;3.78;;;;;;;23.52;41.83;102157.81;5058553;28;20025;-72
2023/05/31 12:14:55;;;;;;;8.43;3.78;;;;;;;23.59;42.06;102149.22;5066251;28;20051;-71
2023/05/31 12:17:21;;;;;;;11.07;3.92;;;;;;;23.58;41.63;102141.22;5049483;28;20048;-77
2023/05/31 12:19:47;;;;;;;10.27;3.60;;;;;;;23.67;41.97;102137.59;5052380;28;20158;-72
2023/05/31 12:22:13;;;;;;;11.20;3.75;;;;;;;23.76;41.66;102143.34;5050998;28;20024;-73
2023/05/31 12:24:51;;;;;;;9.43;3.65;;;;;;;23.76;42.17;102132.28;5052779;28;20040;-75
2023/05/31 12:27:19;;;;;;;11.35;3.45;;;;;;;23.78;41.67;102130.09;5052614;28;20024;-74
2023/05/31 12:29:44;;;;;;;11.32;4.25;;;;;;;23.80;41.14;102124.28;5051831;28;20029;-74
2023/05/31 12:32:09;;;;;;;8.70;3.90;;;;;;;23.76;41.80;102129.53;5050398;28;20472;-77
2023/05/31 12:34:36;;;;;;;8.43;3.33;;;;;;;23.97;41.38;102123.94;5071227;28;20043;-75
2023/05/31 12:37:06;;;;;;;8.63;3.35;;;;;;;24.10;41.37;102117.78;5052479;28;20457;-77
2023/05/31 12:39:33;;;;;;;14.02;3.80;;;;;;;24.22;40.82;102114.66;5031735;28;20367;-77
2023/05/31 12:41:58;;;;;;;9.20;3.67;;;;;;;24.22;39.97;102121.03;5032915;28;20429;-78
2023/05/31 12:44:26;;;;;;;8.60;3.50;;;;;;;24.22;40.23;102109.13;5048272;28;20029;-76
2023/05/31 12:46:57;;;;;;;9.57;3.33;;;;;;;24.21;39.65;102113.81;5033076;28;20026;-74
2023/05/31 12:49:26;;;;;;;12.48;3.55;;;;;;;24.25;40.37;102116.88;5072300;28;20091;-76
2023/05/31 12:52:14;;;;;;;8.50;3.45;;;;;;;24.46;40.95;102113.91;5071303;28;20021;-77
2023/05/31 12:54:39;;;;;;;8.00;3.15;;;;;;;24.55;40.08;102107.50;5071162;28;20044;-77
2023/05/31 12:57:08;;;;;;;11.38;3.15;;;;;;;24.63;40.16;102108.03;5072423;28;20024;-75
2023/05/31 12:59:34;;;;;;;7.82;3.10;;;;;;;24.70;39.62;102100.19;5072522;28;20024;-72
2023/05/31 13:02:01;;;;;;;12.52;3.50;;;;;;;24.70;39.42;102103.81;5053966;28;20020;-76
2023/05/31 13:04:26;;;;;;;11.85;3.13;;;;;;;24.81;39.26;102100.94;5040971;28;20612;-72
2023/05/31 13:06:52;;;;;;;14.23;3.80;;;;;;;24.88;39.58;102090.34;5050435;28;20033;-75
2023/05/31 13:09:18;;;;;;;9.32;3.40;;;;;;;24.89;38.16;102090.03;5052092;28;20037;-73
2023/05/31 13:11:48;;;;;;;16.48;3.78;;;;;;;24.92;38.94;102092.22;5056265;28;20037;-73
2023/05/31 13:14:14;;;;;;;11.05;3.50;;;;;;;24.94;38.91;102081.69;5054992;28;20032;-73
2023/05/31 13:16:40;;;;;;;7.93;3.28;;;;;;;25.10;38.19;102084.31;5072284;28;20035;-73
2023/05/31 13:19:06;;;;;;;12.77;3.35;;;;;;;25.19;38.32;102082.53;5065648;28;20028;-74
2023/05/31 13:21:35;;;;;;;9.10;3.20;;;;;;;25.19;37.12;102077.00;5053131;28;20054;-73
2023/05/31 13:24:01;;;;;;;7.95;3.10;;;;;;;25.31;37.17;102084.09;5071997;28;20021;-74
2023/05/31 13:26:27;;;;;;;11.75;3.22;;;;;;;25.32;37.39;102074.66;5070984;28;20033;-73
2023/05/31 13:28:57;;;;;;;13.00;3.05;;;;;;;25.39;37.37;102081.47;5072243;28;20035;-73
2023/05/31 13:31:24;;;;;;;13.50;3.38;;;;;;;25.46;37.48;102083.91;5068104;28;20021;-74
2023/05/31 13:33:50;;;;;;;9.20;3.30;;;;;;;25.52;37.24;102084.69;5039791;28;20036;-73
2023/05/31 13:36:16;;;;;;;12.65;3.58;;;;;;;25.50;37.09;102089.66;5047671;28;20028;-74
2023/05/31 13:38:42;;;;;;;9.57;3.47;;;;;;;25.40;37.33;102076.78;5048917;28;20037;-74
2023/05/31 13:41:08;;;;;;;8.88;3.20;;;;;;;25.34;37.68;102066.88;5051501;28;20486;-74
2023/05/31 13:43:38;;;;;;;8.13;2.92;;;;;;;25.34;37.16;102076.03;5055603;28;20146;-72
2023/05/31 13:46:08;;;;;;;;;;;;;;;25.41;38.94;102067.34;5048064;28;20060;-71
2023/05/31 13:48:34;;;;;;;10.13;3.00;;;;;;;25.22;37.93;102068.09;5052107;28;19908;-75
2023/05/31 13:50:59;;;;;;;8.05;3.28;;;;;;;25.22;38.09;102065.31;5048585;28;20103;-73
2023/05/31 13:53:24;;;;;;;13.35;3.78;;;;;;;25.20;38.38;102061.19;5043993;28;20529;-75
2023/05/31 13:55:50;;;;;;;11.10;2.90;;;;;;;25.23;39.08;102061.44;5051722;28;20048;-76
2023/05/31 13:58:16;;;;;;;14.35;3.42;;;;;;;25.34;38.93;102064.13;5054803;28;20075;-80
2023/05/31 14:00:41;;;;;;;12.02;3.15;;;;;;;25.32;38.65;102060.81;5051622;28;20681;-78
2023/05/31 14:03:07;;;;;;;9.20;3.25;;;;;;;25.25;38.14;102056.41;5051699;28;20107;-76
2023/05/31 14:05:32;;;;;;;8.15;3.08;;;;;;;25.30;38.42;102061.09;5064836;28;20445;-77
2023/05/31 14:07:58;;;;;;;10.55;3.30;;;;;;;25.39;38.36;102053.78;5040936;28;20029;-77
2023/05/31 14:10:23;;;;;;;12.65;3.20;;;;;;;25.38;37.96;102052.16;5054997;28;20059;-75
2023/05/31 14:12:49;;;;;;;6.60;2.67;;;;;;;25.46;37.53;102053.44;5049800;28;20509;-76
2023/05/31 14:15:15;;;;;;;13.27;3.05;;;;;;;25.42;37.74;102044.06;5054614;28;20021;-78
2023/05/31 14:17:40;;;;;;;9.40;2.90;;;;;;;25.60;37.49;102042.44;5040197;28;20041;-76
2023/05/31 14:20:06;;;;;;;13.52;3.58;;;;;;;25.74;37.26;102042.50;5040978;28;20029;-73
2023/05/31 14:22:32;;;;;;;18.40;4.03;;;;;;;25.76;37.02;102043.06;5034546;28;20599;-74
2023/05/31 14:24:57;;;;;;;17.63;3.50;;;;;;;25.94;37.38;102028.34;5034298;28;20072;-74
2023/05/31 14:27:23;;;;;;;11.27;3.50;;;;;;;26.04;37.67;102034.88;5034677;28;20029;-74
2023/05/31 14:29:48;;;;;;;9.15;3.10;;;;;;;26.06;37.08;102033.47;5052222;28;20483;-72
2023/05/31 14:32:14;;;;;;;7.28;3.17;;;;;;;26.16;36.77;102038.00;5054523;28;20108;-72
2023/05/31 14:34:44;;;;;;;14.35;3.47;;;;;;;26.18;36.67;102041.31;5054322;28;20028;-72
2023/05/31 14:37:09;;;;;;;9.00;2.95;;;;;;;26.17;36.58;102036.91;5052679;28;20059;-73
2023/05/31 14:39:34;;;;;;;10.00;3.45;;;;;;;26.13;36.19;102035.84;5036613;28;20064;-73
2023/05/31 14:42:00;;;;;;;8.43;3.10;;;;;;;26.19;35.99;102040.19;5053796;28;20432;-73
2023/05/31 14:44:25;;;;;;;10.73;3.03;;;;;;;26.25;36.52;102036.19;5060403;28;20332;-72
2023/05/31 14:46:54;;;;;;;11.70;3.20;;;;;;;26.32;36.29;102033.84;5070518;28;20696;-73
2023/05/31 14:49:20;;;;;;;9.13;3.28;;;;;;;26.27;36.00;102042.28;5072501;28;20341;-72
2023/05/31 14:51:47;;;;;;;10.73;2.97;;;;;;;26.29;36.20;102031.69;5074100;28;20107;-72
2023/05/31 14:54:12;;;;;;;8.82;3.40;;;;;;;26.26;36.40;102021.19;5073881;28;20052;-73
2023/05/31 14:56:37;;;;;;;9.63;3.17;;;;;;;26.31;36.42;102023.88;5074366;28;20075;-73
2023/05/31 14:59:03;;;;;;;12.85;3.15;;;;;;;26.27;36.01;102022.84;5073762;28;20417;-73
2023/05/31 15:01:28;;;;;;;10.40;3.38;;;;;;;26.22;35.96;102019.34;5071680;28;20398;-74
2023/05/31 15:03:55;;;;;;;11.35;3.50;;;;;;;26.24;36.04;102012.38;5051155;28;20021;-75
2023/05/31 15:06:21;;;;;;;8.38;3.00;;;;;;;26.41;36.33;102027.63;5034148;28;20040;-75
2023/05/31 15:08:47;;;;;;;12.02;2.97;;;;;;;26.53;35.96;102020.44;5034128;28;20108;-75
2023/05/31 15:11:12;;;;;;;7.45;3.33;;;;;;;26.60;36.24;102020.06;5036330;28;20112;-75
2023/05/31 15:13:37;;;;;;;11.10;3.03;;;;;;;26.64;35.53;102015.53;5051874;28;20418;-76
2023/05/31 15:16:03;;;;;;;9.13;2.97;;;;;;;26.70;35.28;102019.88;5053912;28;20020;-74
2023/05/31 15:18:28;;;;;;;10.73;3.40;;;;;;;26.75;35.36;102026.47;5054100;28;20028;-75
2023/05/31 15:20:53;;;;;;;7.80;3.17;;;;;;;26.78;35.50;102012.78;5055247;28;20363;-75
2023/05/31 15:23:18;;;;;;;6.07;3.22;;;;;;;26.69;35.23;102009.06;5066389;28;20040;-74
2023/05/31 15:25:44;;;;;;;6.03;2.90;;;;;;;26.74;35.07;102022.88;5056592;28;20444;-74
2023/05/31 15:28:09;;;;;;;14.30;3.20;;;;;;;26.84;34.87;102019.06;5052994;28;20263;-74
2023/05/31 15:30:35;;;;;;;12.73;3.43;;;;;;;27.01;34.67;102018.44;5053458;28;20742;-73
2023/05/31 15:33:00;;;;;;;12.85;3.92;;;;;;;27.20;35.30;102010.00;5055972;28;20291;-75
2023/05/31 15:35:26;;;;;;;9.13;2.90;;;;;;;27.35;35.24;102011.66;5054213;28;20045;-75
2023/05/31 15:37:51;;;;;;;10.10;3.40;;;;;;;27.72;34.53;102005.00;5051180;28;20020;-75
2023/05/31 15:40:16;;;;;;;10.90;3.10;;;;;;;28.14;33.23;102004.00;5049970;28;20025;-75
2023/05/31 15:42:42;;;;;;;7.40;3.00;;;;;;;28.64;32.15;102012.22;5046459;28;20033;-75
2023/05/31 15:45:07;;;;;;;10.15;3.10;;;;;;;29.39;31.57;102001.13;5043842;28;20288;-75
2023/05/31 15:47:33;;;;;;;11.60;4.63;;;;;;;29.71;30.79;101999.00;5053326;28;20017;-78
2023/05/31 15:50:00;;;;;;;12.50;3.30;;;;;;;29.92;30.24;101998.38;5053321;28;20048;-74
2023/05/31 15:52:26;;;;;;;7.60;3.00;;;;;;;30.10;30.43;101994.41;5056728;28;20311;-74
2023/05/31 15:54:51;;;;;;;10.20;3.97;;;;;;;29.89;30.42;101996.25;5047429;28;20498;-73
2023/05/31 15:57:17;;;;;;;12.07;3.00;;;;;;;29.64;30.79;101998.72;5038346;28;20445;-75
2023/05/31 15:59:42;;;;;;;11.32;3.00;;;;;;;29.03;31.25;101990.22;5048654;28;20283;-75
2023/05/31 16:02:07;;;;;;;10.73;3.20;;;;;;;28.34;32.58;101986.78;5039125;28;20029;-75
2023/05/31 16:04:32;;;;;;;8.60;3.17;;;;;;;27.90;33.29;101985.63;5036471;28;20347;-74
2023/05/31 16:06:58;;;;;;;12.13;3.93;;;;;;;27.51;33.80;101979.63;5052870;28;20112;-74
